sensor_id;sensor_type;location;lat;lon;timestamp;P1;durP1;ratioP1;P2;durP2;ratioP2
37973;SDS011;23796;51.458;7.000;2023-08-01T00:00:07;2.85;;;1.60;;
37973;SDS011;23796;51.458;7.000;2023-08-01T00:02:33;3.00;;;1.90;;
37973;SDS011;23796;51.458;7.000;2023-08-01T00:04:59;2.25;;;1.35;;
37973;SDS011;23796;51.458;7.000;2023-08-01T00:07:26;2.97;;;1.40;;
37973;SDS011;23796;51.458;7.000;2023-08-01T00:09:53;3.50;;;1.13;;
37973;SDS011;23796;51.458;7.000;2023-08-01T00:12:18;2.80;;;1.58;;
37973;SDS011;23796;51.458;7.000;2023-08-01T00:14:44;2.33;;;1.23;;
37973;SDS011;23796;51.458;7.000;2023-08-01T00:17:10;3.65;;;1.00;;
37973;SDS011;23796;51.458;7.000;2023-08-01T00:19:38;2.78;;;1.30;;
37973;SDS011;23796;51.458;7.000;2023-08-01T00:22:06;2.22;;;1.10;;
37973;SDS011;23796;51.458;7.000;2023-08-01T00:24:31;2.53;;;1.35;;
37973;SDS011;23796;51.458;7.000;2023-08-01T00:26:57;3.10;;;1.45;;
37973;SDS011;23796;51.458;7.000;2023-08-01T00:29:23;2.67;;;1.13;;
37973;SDS011;23796;51.458;7.000;2023-08-01T00:31:48;3.33;;;1.88;;
37973;SDS011;23796;51.458;7.000;2023-08-01T00:34:14;2.97;;;1.50;;
37973;SDS011;23796;51.458;7.000;2023-08-01T00:36:39;3.03;;;1.83;;
37973;SDS011;23796;51.458;7.000;2023-08-01T00:39:05;2.90;;;1.80;;
37973;SDS011;23796;51.458;7.000;2023-08-01T00:41:31;3.63;;;2.40;;
37973;SDS011;23796;51.458;7.000;2023-08-01T00:43:56;3.97;;;2.70;;
37973;SDS011;23796;51.458;7.000;2023-08-01T00:46:22;4.10;;;2.80;;
37973;SDS011;23796;51.458;7.000;2023-08-01T00:48:48;6.00;;;2.70;;
37973;SDS011;23796;51.458;7.000;2023-08-01T00:51:15;3.88;;;2.55;;
37973;SDS011;23796;51.458;7.000;2023-08-01T00:53:42;5.30;;;2.60;;
37973;SDS011;23796;51.458;7.000;2023-08-01T00:56:10;3.38;;;2.05;;
37973;SDS011;23796;51.458;7.000;2023-08-01T00:58:36;3.50;;;2.15;;
37973;SDS011;23796;51.458;7.000;2023-08-01T01:01:01;3.45;;;1.70;;
37973;SDS011;23796;51.458;7.000;2023-08-01T01:03:28;2.15;;;1.20;;
37973;SDS011;23796;51.458;7.000;2023-08-01T01:08:35;1.75;;;0.95;;
37973;SDS011;23796;51.458;7.000;2023-08-01T01:11:01;2.13;;;1.02;;
37973;SDS011;23796;51.458;7.000;2023-08-01T01:13:27;2.40;;;0.80;;
37973;SDS011;23796;51.458;7.000;2023-08-01T01:15:53;2.05;;;1.10;;
37973;SDS011;23796;51.458;7.000;2023-08-01T01:18:18;2.50;;;1.10;;
37973;SDS011;23796;51.458;7.000;2023-08-01T01:20:44;2.42;;;1.00;;
37973;SDS011;23796;51.458;7.000;2023-08-01T01:23:10;2.30;;;1.13;;
37973;SDS011;23796;51.458;7.000;2023-08-01T01:25:39;2.80;;;1.10;;
37973;SDS011;23796;51.458;7.000;2023-08-01T01:28:05;2.40;;;1.00;;
37973;SDS011;23796;51.458;7.000;2023-08-01T01:30:33;2.47;;;1.50;;
37973;SDS011;23796;51.458;7.000;2023-08-01T01:33:00;2.60;;;1.30;;
37973;SDS011;23796;51.458;7.000;2023-08-01T01:35:26;2.65;;;1.30;;
37973;SDS011;23796;51.458;7.000;2023-08-01T01:37:51;2.55;;;1.50;;
37973;SDS011;23796;51.458;7.000;2023-08-01T01:40:17;2.95;;;1.90;;
37973;SDS011;23796;51.458;7.000;2023-08-01T01:42:45;3.03;;;1.98;;
37973;SDS011;23796;51.458;7.000;2023-08-01T01:45:11;3.58;;;2.20;;
37973;SDS011;23796;51.458;7.000;2023-08-01T01:48:58;3.85;;;2.75;;
37973;SDS011;23796;51.458;7.000;2023-08-01T01:51:27;4.63;;;3.53;;
37973;SDS011;23796;51.458;7.000;2023-08-01T01:53:54;5.15;;;2.70;;
37973;SDS011;23796;51.458;7.000;2023-08-01T01:56:20;3.78;;;2.30;;
37973;SDS011;23796;51.458;7.000;2023-08-01T01:58:45;2.95;;;1.50;;
37973;SDS011;23796;51.458;7.000;2023-08-01T02:01:11;2.80;;;1.50;;
37973;SDS011;23796;51.458;7.000;2023-08-01T02:03:39;2.53;;;1.00;;
37973;SDS011;23796;51.458;7.000;2023-08-01T02:06:04;3.28;;;0.93;;
37973;SDS011;23796;51.458;7.000;2023-08-01T02:08:30;2.85;;;0.88;;
37973;SDS011;23796;51.458;7.000;2023-08-01T02:10:56;2.30;;;0.82;;
37973;SDS011;23796;51.458;7.000;2023-08-01T02:13:26;3.10;;;1.15;;
37973;SDS011;23796;51.458;7.000;2023-08-01T02:15:54;2.83;;;0.80;;
37973;SDS011;23796;51.458;7.000;2023-08-01T02:18:20;1.85;;;0.85;;
37973;SDS011;23796;51.458;7.000;2023-08-01T02:20:45;2.10;;;0.77;;
37973;SDS011;23796;51.458;7.000;2023-08-01T02:23:11;2.25;;;0.90;;
37973;SDS011;23796;51.458;7.000;2023-08-01T02:25:40;3.85;;;1.40;;
37973;SDS011;23796;51.458;7.000;2023-08-01T02:28:06;5.05;;;1.52;;
37973;SDS011;23796;51.458;7.000;2023-08-01T02:30:32;3.03;;;1.40;;
37973;SDS011;23796;51.458;7.000;2023-08-01T02:32:58;3.35;;;1.50;;
37973;SDS011;23796;51.458;7.000;2023-08-01T02:35:24;3.63;;;1.50;;
37973;SDS011;23796;51.458;7.000;2023-08-01T02:37:50;3.03;;;1.60;;
37973;SDS011;23796;51.458;7.000;2023-08-01T02:40:15;2.80;;;1.52;;
37973;SDS011;23796;51.458;7.000;2023-08-01T02:42:43;4.75;;;2.28;;
37973;SDS011;23796;51.458;7.000;2023-08-01T02:45:09;3.90;;;2.25;;
37973;SDS011;23796;51.458;7.000;2023-08-01T02:47:34;6.47;;;3.50;;
37973;SDS011;23796;51.458;7.000;2023-08-01T02:50:00;5.07;;;2.50;;
37973;SDS011;23796;51.458;7.000;2023-08-01T02:52:26;3.78;;;2.70;;
37973;SDS011;23796;51.458;7.000;2023-08-01T02:54:51;4.18;;;2.80;;
37973;SDS011;23796;51.458;7.000;2023-08-01T02:57:17;5.32;;;3.33;;
37973;SDS011;23796;51.458;7.000;2023-08-01T02:59:42;4.75;;;3.50;;
37973;SDS011;23796;51.458;7.000;2023-08-01T03:02:08;4.53;;;3.13;;
37973;SDS011;23796;51.458;7.000;2023-08-01T03:04:34;4.28;;;3.03;;
37973;SDS011;23796;51.458;7.000;2023-08-01T03:07:00;5.15;;;3.65;;
37973;SDS011;23796;51.458;7.000;2023-08-01T03:09:26;4.63;;;3.47;;
37973;SDS011;23796;51.458;7.000;2023-08-01T03:11:51;5.72;;;3.22;;
37973;SDS011;23796;51.458;7.000;2023-08-01T03:14:17;4.95;;;4.25;;
37973;SDS011;23796;51.458;7.000;2023-08-01T03:16:43;6.30;;;4.80;;
37973;SDS011;23796;51.458;7.000;2023-08-01T03:19:08;8.55;;;5.50;;
37973;SDS011;23796;51.458;7.000;2023-08-01T03:21:34;8.00;;;5.00;;
37973;SDS011;23796;51.458;7.000;2023-08-01T03:24:00;7.20;;;5.05;;
37973;SDS011;23796;51.458;7.000;2023-08-01T03:26:28;6.90;;;5.72;;
37973;SDS011;23796;51.458;7.000;2023-08-01T03:28:54;7.78;;;6.00;;
37973;SDS011;23796;51.458;7.000;2023-08-01T03:31:21;9.80;;;7.43;;
37973;SDS011;23796;51.458;7.000;2023-08-01T03:33:47;9.57;;;6.90;;
37973;SDS011;23796;51.458;7.000;2023-08-01T03:36:13;8.43;;;7.38;;
37973;SDS011;23796;51.458;7.000;2023-08-01T03:38:38;9.57;;;7.03;;
37973;SDS011;23796;51.458;7.000;2023-08-01T03:41:04;9.15;;;6.93;;
37973;SDS011;23796;51.458;7.000;2023-08-01T03:43:30;9.02;;;7.32;;
37973;SDS011;23796;51.458;7.000;2023-08-01T03:45:58;10.52;;;6.68;;
37973;SDS011;23796;51.458;7.000;2023-08-01T03:48:24;10.05;;;6.60;;
37973;SDS011;23796;51.458;7.000;2023-08-01T03:50:49;9.32;;;7.22;;
37973;SDS011;23796;51.458;7.000;2023-08-01T03:53:15;9.90;;;6.82;;
37973;SDS011;23796;51.458;7.000;2023-08-01T03:55:40;7.53;;;6.45;;
37973;SDS011;23796;51.458;7.000;2023-08-01T03:58:07;10.95;;;6.63;;
37973;SDS011;23796;51.458;7.000;2023-08-01T04:00:33;13.45;;;7.07;;
37973;SDS011;23796;51.458;7.000;2023-08-01T04:02:59;10.98;;;6.47;;
37973;SDS011;23796;51.458;7.000;2023-08-01T04:05:25;7.97;;;5.97;;
37973;SDS011;23796;51.458;7.000;2023-08-01T04:07:50;11.75;;;7.18;;
37973;SDS011;23796;51.458;7.000;2023-08-01T04:10:19;10.63;;;6.10;;
37973;SDS011;23796;51.458;7.000;2023-08-01T04:12:46;11.23;;;7.07;;
37973;SDS011;23796;51.458;7.000;2023-08-01T04:15:11;9.82;;;6.47;;
37973;SDS011;23796;51.458;7.000;2023-08-01T04:17:37;8.18;;;6.35;;
37973;SDS011;23796;51.458;7.000;2023-08-01T04:20:05;11.20;;;6.97;;
37973;SDS011;23796;51.458;7.000;2023-08-01T04:22:31;9.88;;;6.00;;
37973;SDS011;23796;51.458;7.000;2023-08-01T04:24:57;11.93;;;7.25;;
37973;SDS011;23796;51.458;7.000;2023-08-01T04:27:23;9.90;;;8.63;;
37973;SDS011;23796;51.458;7.000;2023-08-01T04:29:48;10.32;;;6.18;;
37973;SDS011;23796;51.458;7.000;2023-08-01T04:32:14;8.77;;;5.78;;
37973;SDS011;23796;51.458;7.000;2023-08-01T04:34:40;9.15;;;6.07;;
37973;SDS011;23796;51.458;7.000;2023-08-01T04:37:08;9.38;;;6.93;;
37973;SDS011;23796;51.458;7.000;2023-08-01T04:39:35;11.95;;;6.85;;
37973;SDS011;23796;51.458;7.000;2023-08-01T04:42:01;12.43;;;7.00;;
37973;SDS011;23796;51.458;7.000;2023-08-01T04:44:26;8.90;;;5.65;;
37973;SDS011;23796;51.458;7.000;2023-08-01T04:46:55;11.15;;;6.68;;
37973;SDS011;23796;51.458;7.000;2023-08-01T04:49:21;10.98;;;6.75;;
37973;SDS011;23796;51.458;7.000;2023-08-01T04:51:48;10.98;;;7.18;;
37973;SDS011;23796;51.458;7.000;2023-08-01T04:54:14;12.35;;;7.22;;
37973;SDS011;23796;51.458;7.000;2023-08-01T04:56:40;12.30;;;7.00;;
37973;SDS011;23796;51.458;7.000;2023-08-01T04:59:05;9.07;;;6.88;;
37973;SDS011;23796;51.458;7.000;2023-08-01T05:01:31;11.60;;;7.47;;
37973;SDS011;23796;51.458;7.000;2023-08-01T05:03:59;12.52;;;7.88;;
37973;SDS011;23796;51.458;7.000;2023-08-01T05:06:25;10.32;;;7.88;;
37973;SDS011;23796;51.458;7.000;2023-08-01T05:08:53;11.90;;;7.82;;
37973;SDS011;23796;51.458;7.000;2023-08-01T05:11:19;11.85;;;7.65;;
37973;SDS011;23796;51.458;7.000;2023-08-01T05:13:44;10.10;;;7.43;;
37973;SDS011;23796;51.458;7.000;2023-08-01T05:16:10;10.90;;;7.57;;
37973;SDS011;23796;51.458;7.000;2023-08-01T05:18:36;12.40;;;7.28;;
37973;SDS011;23796;51.458;7.000;2023-08-01T05:21:01;10.43;;;7.88;;
37973;SDS011;23796;51.458;7.000;2023-08-01T05:23:27;14.52;;;8.52;;
37973;SDS011;23796;51.458;7.000;2023-08-01T05:25:53;9.55;;;7.32;;
37973;SDS011;23796;51.458;7.000;2023-08-01T05:28:18;11.25;;;8.27;;
37973;SDS011;23796;51.458;7.000;2023-08-01T05:30:44;11.48;;;8.80;;
37973;SDS011;23796;51.458;7.000;2023-08-01T05:33:10;11.63;;;9.38;;
37973;SDS011;23796;51.458;7.000;2023-08-01T05:35:36;11.15;;;8.68;;
37973;SDS011;23796;51.458;7.000;2023-08-01T05:38:01;13.98;;;10.05;;
37973;SDS011;23796;51.458;7.000;2023-08-01T05:40:27;12.77;;;9.90;;
37973;SDS011;23796;51.458;7.000;2023-08-01T05:42:53;12.63;;;9.73;;
37973;SDS011;23796;51.458;7.000;2023-08-01T05:45:18;11.20;;;9.02;;
37973;SDS011;23796;51.458;7.000;2023-08-01T05:47:44;13.07;;;8.93;;
37973;SDS011;23796;51.458;7.000;2023-08-01T05:50:09;11.07;;;9.77;;
37973;SDS011;23796;51.458;7.000;2023-08-01T05:52:35;14.88;;;10.82;;
37973;SDS011;23796;51.458;7.000;2023-08-01T05:55:03;13.15;;;9.18;;
37973;SDS011;23796;51.458;7.000;2023-08-01T05:57:32;12.45;;;9.48;;
37973;SDS011;23796;51.458;7.000;2023-08-01T06:00:00;10.52;;;9.13;;
37973;SDS011;23796;51.458;7.000;2023-08-01T06:02:28;12.10;;;9.10;;
37973;SDS011;23796;51.458;7.000;2023-08-01T06:04:53;10.00;;;8.98;;
37973;SDS011;23796;51.458;7.000;2023-08-01T06:07:19;13.68;;;9.60;;
37973;SDS011;23796;51.458;7.000;2023-08-01T06:09:48;12.68;;;10.00;;
37973;SDS011;23796;51.458;7.000;2023-08-01T06:12:16;10.27;;;9.18;;
37973;SDS011;23796;51.458;7.000;2023-08-01T06:14:42;11.00;;;9.05;;
37973;SDS011;23796;51.458;7.000;2023-08-01T06:17:07;12.35;;;9.25;;
37973;SDS011;23796;51.458;7.000;2023-08-01T06:19:33;11.60;;;8.55;;
37973;SDS011;23796;51.458;7.000;2023-08-01T06:21:59;12.55;;;8.52;;
37973;SDS011;23796;51.458;7.000;2023-08-01T06:25:24;12.18;;;9.10;;
37973;SDS011;23796;51.458;7.000;2023-08-01T06:27:50;11.10;;;8.45;;
37973;SDS011;23796;51.458;7.000;2023-08-01T06:30:15;11.10;;;8.90;;
37973;SDS011;23796;51.458;7.000;2023-08-01T06:32:41;10.60;;;8.70;;
37973;SDS011;23796;51.458;7.000;2023-08-01T06:35:08;11.85;;;8.40;;
37973;SDS011;23796;51.458;7.000;2023-08-01T06:37:34;10.55;;;8.43;;
37973;SDS011;23796;51.458;7.000;2023-08-01T06:40:02;9.40;;;8.05;;
37973;SDS011;23796;51.458;7.000;2023-08-01T06:42:29;10.75;;;8.63;;
37973;SDS011;23796;51.458;7.000;2023-08-01T06:44:54;15.07;;;9.40;;
37973;SDS011;23796;51.458;7.000;2023-08-01T06:47:20;11.50;;;9.32;;
37973;SDS011;23796;51.458;7.000;2023-08-01T06:49:46;12.13;;;8.95;;
37973;SDS011;23796;51.458;7.000;2023-08-01T06:52:13;11.52;;;8.65;;
37973;SDS011;23796;51.458;7.000;2023-08-01T06:54:39;10.98;;;8.18;;
37973;SDS011;23796;51.458;7.000;2023-08-01T06:57:06;11.93;;;8.10;;
37973;SDS011;23796;51.458;7.000;2023-08-01T06:59:32;10.65;;;8.35;;
37973;SDS011;23796;51.458;7.000;2023-08-01T07:01:57;10.65;;;7.47;;
37973;SDS011;23796;51.458;7.000;2023-08-01T07:04:23;10.13;;;7.05;;
37973;SDS011;23796;51.458;7.000;2023-08-01T07:06:51;9.48;;;7.22;;
37973;SDS011;23796;51.458;7.000;2023-08-01T07:09:17;10.38;;;7.78;;
37973;SDS011;23796;51.458;7.000;2023-08-01T07:11:44;9.48;;;6.32;;
37973;SDS011;23796;51.458;7.000;2023-08-01T07:14:10;8.32;;;6.05;;
37973;SDS011;23796;51.458;7.000;2023-08-01T07:16:35;7.30;;;5.78;;
37973;SDS011;23796;51.458;7.000;2023-08-01T07:19:03;8.98;;;5.88;;
37973;SDS011;23796;51.458;7.000;2023-08-01T07:21:29;9.32;;;6.57;;
37973;SDS011;23796;51.458;7.000;2023-08-01T07:23:54;10.30;;;6.43;;
37973;SDS011;23796;51.458;7.000;2023-08-01T07:26:20;8.98;;;5.70;;
37973;SDS011;23796;51.458;7.000;2023-08-01T07:28:46;9.13;;;5.72;;
37973;SDS011;23796;51.458;7.000;2023-08-01T07:31:11;8.20;;;6.00;;
37973;SDS011;23796;51.458;7.000;2023-08-01T07:33:37;10.63;;;5.65;;
37973;SDS011;23796;51.458;7.000;2023-08-01T07:36:03;9.20;;;5.85;;
37973;SDS011;23796;51.458;7.000;2023-08-01T07:38:28;7.93;;;5.50;;
37973;SDS011;23796;51.458;7.000;2023-08-01T07:40:56;7.53;;;5.22;;
37973;SDS011;23796;51.458;7.000;2023-08-01T07:43:22;9.02;;;5.65;;
37973;SDS011;23796;51.458;7.000;2023-08-01T07:45:48;9.32;;;5.47;;
37973;SDS011;23796;51.458;7.000;2023-08-01T07:48:15;9.68;;;6.10;;
37973;SDS011;23796;51.458;7.000;2023-08-01T07:50:41;8.90;;;4.78;;
37973;SDS011;23796;51.458;7.000;2023-08-01T07:53:07;11.57;;;5.38;;
37973;SDS011;23796;51.458;7.000;2023-08-01T07:55:34;7.88;;;4.80;;
37973;SDS011;23796;51.458;7.000;2023-08-01T07:58:02;9.80;;;5.03;;
37973;SDS011;23796;51.458;7.000;2023-08-01T08:00:29;8.43;;;5.30;;
37973;SDS011;23796;51.458;7.000;2023-08-01T08:02:54;6.63;;;5.03;;
37973;SDS011;23796;51.458;7.000;2023-08-01T08:05:20;7.82;;;4.78;;
37973;SDS011;23796;51.458;7.000;2023-08-01T08:07:48;9.23;;;5.28;;
37973;SDS011;23796;51.458;7.000;2023-08-01T08:10:16;8.18;;;4.97;;
37973;SDS011;23796;51.458;7.000;2023-08-01T08:12:44;7.40;;;5.13;;
37973;SDS011;23796;51.458;7.000;2023-08-01T08:15:12;7.60;;;4.82;;
37973;SDS011;23796;51.458;7.000;2023-08-01T08:17:38;8.07;;;4.68;;
37973;SDS011;23796;51.458;7.000;2023-08-01T08:20:04;9.98;;;4.70;;
37973;SDS011;23796;51.458;7.000;2023-08-01T08:22:31;9.40;;;4.65;;
37973;SDS011;23796;51.458;7.000;2023-08-01T08:24:56;7.20;;;4.50;;
37973;SDS011;23796;51.458;7.000;2023-08-01T08:27:22;10.73;;;5.50;;
37973;SDS011;23796;51.458;7.000;2023-08-01T08:29:48;7.65;;;5.28;;
37973;SDS011;23796;51.458;7.000;2023-08-01T08:32:16;9.45;;;4.68;;
37973;SDS011;23796;51.458;7.000;2023-08-01T08:34:47;10.10;;;4.85;;
37973;SDS011;23796;51.458;7.000;2023-08-01T08:37:12;9.70;;;4.28;;
37973;SDS011;23796;51.458;7.000;2023-08-01T08:39:38;7.53;;;4.88;;
37973;SDS011;23796;51.458;7.000;2023-08-01T08:42:04;9.38;;;5.07;;
37973;SDS011;23796;51.458;7.000;2023-08-01T08:44:30;8.30;;;4.72;;
37973;SDS011;23796;51.458;7.000;2023-08-01T08:47:02;7.60;;;4.78;;
37973;SDS011;23796;51.458;7.000;2023-08-01T08:49:30;7.07;;;4.53;;
37973;SDS011;23796;51.458;7.000;2023-08-01T08:51:57;8.70;;;4.45;;
37973;SDS011;23796;51.458;7.000;2023-08-01T08:54:23;7.40;;;4.55;;
37973;SDS011;23796;51.458;7.000;2023-08-01T08:56:50;7.57;;;4.28;;
37973;SDS011;23796;51.458;7.000;2023-08-01T08:59:18;6.30;;;3.80;;
37973;SDS011;23796;51.458;7.000;2023-08-01T09:01:45;7.03;;;3.85;;
37973;SDS011;23796;51.458;7.000;2023-08-01T09:04:11;8.65;;;3.85;;
37973;SDS011;23796;51.458;7.000;2023-08-01T09:06:40;6.43;;;4.10;;
37973;SDS011;23796;51.458;7.000;2023-08-01T09:09:11;9.10;;;4.25;;
37973;SDS011;23796;51.458;7.000;2023-08-01T09:11:42;7.03;;;3.90;;
37973;SDS011;23796;51.458;7.000;2023-08-01T09:14:14;5.97;;;3.45;;
37973;SDS011;23796;51.458;7.000;2023-08-01T09:16:41;7.25;;;3.20;;
37973;SDS011;23796;51.458;7.000;2023-08-01T09:19:07;6.03;;;3.30;;
37973;SDS011;23796;51.458;7.000;2023-08-01T09:21:34;6.63;;;3.72;;
37973;SDS011;23796;51.458;7.000;2023-08-01T09:26:45;5.50;;;3.33;;
37973;SDS011;23796;51.458;7.000;2023-08-01T09:29:12;7.13;;;3.28;;
37973;SDS011;23796;51.458;7.000;2023-08-01T09:31:39;5.88;;;2.60;;
37973;SDS011;23796;51.458;7.000;2023-08-01T09:34:06;6.03;;;2.72;;
37973;SDS011;23796;51.458;7.000;2023-08-01T09:36:43;6.43;;;2.72;;
37973;SDS011;23796;51.458;7.000;2023-08-01T09:39:15;6.05;;;2.47;;
37973;SDS011;23796;51.458;7.000;2023-08-01T09:41:45;6.45;;;2.30;;
37973;SDS011;23796;51.458;7.000;2023-08-01T09:44:11;4.88;;;2.38;;
37973;SDS011;23796;51.458;7.000;2023-08-01T09:46:40;5.05;;;2.40;;
37973;SDS011;23796;51.458;7.000;2023-08-01T09:49:09;6.30;;;2.85;;
37973;SDS011;23796;51.458;7.000;2023-08-01T09:51:50;5.60;;;2.70;;
37973;SDS011;23796;51.458;7.000;2023-08-01T09:54:16;6.22;;;2.75;;
37973;SDS011;23796;51.458;7.000;2023-08-01T09:56:46;5.32;;;2.60;;
37973;SDS011;23796;51.458;7.000;2023-08-01T09:59:24;4.77;;;2.23;;
37973;SDS011;23796;51.458;7.000;2023-08-01T10:01:51;6.38;;;2.58;;
37973;SDS011;23796;51.458;7.000;2023-08-01T10:04:19;4.97;;;2.60;;
37973;SDS011;23796;51.458;7.000;2023-08-01T10:06:49;4.22;;;2.40;;
37973;SDS011;23796;51.458;7.000;2023-08-01T10:09:21;5.95;;;2.50;;
37973;SDS011;23796;51.458;7.000;2023-08-01T10:11:50;8.27;;;2.83;;
37973;SDS011;23796;51.458;7.000;2023-08-01T10:14:16;5.72;;;2.70;;
37973;SDS011;23796;51.458;7.000;2023-08-01T10:16:48;7.25;;;2.50;;
37973;SDS011;23796;51.458;7.000;2023-08-01T10:19:16;7.15;;;2.88;;
37973;SDS011;23796;51.458;7.000;2023-08-01T10:21:43;7.88;;;2.40;;
37973;SDS011;23796;51.458;7.000;2023-08-01T10:24:09;5.18;;;2.15;;
37973;SDS011;23796;51.458;7.000;2023-08-01T10:26:36;4.40;;;1.90;;
37973;SDS011;23796;51.458;7.000;2023-08-01T10:29:04;9.88;;;2.88;;
37973;SDS011;23796;51.458;7.000;2023-08-01T10:31:30;5.03;;;2.15;;
37973;SDS011;23796;51.458;7.000;2023-08-01T10:34:06;6.00;;;1.92;;
37973;SDS011;23796;51.458;7.000;2023-08-01T10:36:40;4.63;;;2.72;;
37973;SDS011;23796;51.458;7.000;2023-08-01T10:39:06;5.43;;;2.45;;
37973;SDS011;23796;51.458;7.000;2023-08-01T10:44:04;7.43;;;2.72;;
37973;SDS011;23796;51.458;7.000;2023-08-01T10:49:09;6.15;;;1.92;;
37973;SDS011;23796;51.458;7.000;2023-08-01T10:51:37;5.07;;;2.10;;
37973;SDS011;23796;51.458;7.000;2023-08-01T10:54:03;4.35;;;2.03;;
37973;SDS011;23796;51.458;7.000;2023-08-01T10:56:28;7.38;;;2.83;;
37973;SDS011;23796;51.458;7.000;2023-08-01T10:58:56;4.68;;;2.20;;
37973;SDS011;23796;51.458;7.000;2023-08-01T11:01:23;6.85;;;2.33;;
37973;SDS011;23796;51.458;7.000;2023-08-01T11:03:48;4.75;;;2.28;;
37973;SDS011;23796;51.458;7.000;2023-08-01T11:06:17;6.43;;;2.95;;
37973;SDS011;23796;51.458;7.000;2023-08-01T11:08:43;8.55;;;3.10;;
37973;SDS011;23796;51.458;7.000;2023-08-01T11:11:13;8.90;;;3.33;;
37973;SDS011;23796;51.458;7.000;2023-08-01T11:13:39;7.30;;;2.88;;
37973;SDS011;23796;51.458;7.000;2023-08-01T11:16:14;8.13;;;4.63;;
37973;SDS011;23796;51.458;7.000;2023-08-01T11:18:43;5.60;;;3.13;;
37973;SDS011;23796;51.458;7.000;2023-08-01T11:21:09;6.40;;;3.17;;
37973;SDS011;23796;51.458;7.000;2023-08-01T11:23:38;24.42;;;22.15;;
37973;SDS011;23796;51.458;7.000;2023-08-01T11:26:07;5.72;;;3.33;;
37973;SDS011;23796;51.458;7.000;2023-08-01T11:28:33;6.97;;;3.17;;
37973;SDS011;23796;51.458;7.000;2023-08-01T11:30:59;6.40;;;2.88;;
37973;SDS011;23796;51.458;7.000;2023-08-01T11:33:25;5.43;;;2.78;;
37973;SDS011;23796;51.458;7.000;2023-08-01T11:35:54;5.97;;;2.67;;
37973;SDS011;23796;51.458;7.000;2023-08-01T11:38:28;4.80;;;2.05;;
37973;SDS011;23796;51.458;7.000;2023-08-01T11:40:58;6.20;;;2.00;;
37973;SDS011;23796;51.458;7.000;2023-08-01T11:43:24;3.67;;;1.60;;
37973;SDS011;23796;51.458;7.000;2023-08-01T11:45:54;4.22;;;1.40;;
37973;SDS011;23796;51.458;7.000;2023-08-01T11:48:21;6.20;;;1.90;;
37973;SDS011;23796;51.458;7.000;2023-08-01T11:51:00;6.03;;;1.63;;
37973;SDS011;23796;51.458;7.000;2023-08-01T11:53:26;6.75;;;2.25;;
37973;SDS011;23796;51.458;7.000;2023-08-01T11:55:53;5.97;;;2.15;;
37973;SDS011;23796;51.458;7.000;2023-08-01T11:58:28;4.13;;;1.80;;
37973;SDS011;23796;51.458;7.000;2023-08-01T12:01:13;4.63;;;1.70;;
37973;SDS011;23796;51.458;7.000;2023-08-01T12:03:45;5.45;;;1.73;;
37973;SDS011;23796;51.458;7.000;2023-08-01T12:06:17;5.10;;;1.75;;
37973;SDS011;23796;51.458;7.000;2023-08-01T12:08:47;5.18;;;2.17;;
37973;SDS011;23796;51.458;7.000;2023-08-01T12:11:23;5.47;;;2.47;;
37973;SDS011;23796;51.458;7.000;2023-08-01T12:14:03;6.53;;;1.95;;
37973;SDS011;23796;51.458;7.000;2023-08-01T12:16:39;5.40;;;2.33;;
37973;SDS011;23796;51.458;7.000;2023-08-01T12:19:07;5.35;;;2.38;;
37973;SDS011;23796;51.458;7.000;2023-08-01T12:21:36;4.03;;;1.92;;
37973;SDS011;23796;51.458;7.000;2023-08-01T12:24:02;5.22;;;1.80;;
37973;SDS011;23796;51.458;7.000;2023-08-01T12:26:28;6.07;;;1.90;;
37973;SDS011;23796;51.458;7.000;2023-08-01T12:28:54;4.57;;;2.13;;
37973;SDS011;23796;51.458;7.000;2023-08-01T12:31:20;5.40;;;2.30;;
37973;SDS011;23796;51.458;7.000;2023-08-01T12:33:47;4.85;;;2.47;;
37973;SDS011;23796;51.458;7.000;2023-08-01T12:36:13;5.22;;;2.08;;
37973;SDS011;23796;51.458;7.000;2023-08-01T12:38:41;5.18;;;2.20;;
37973;SDS011;23796;51.458;7.000;2023-08-01T12:41:07;5.63;;;2.30;;
37973;SDS011;23796;51.458;7.000;2023-08-01T12:43:33;4.95;;;2.15;;
37973;SDS011;23796;51.458;7.000;2023-08-01T12:45:59;4.57;;;2.00;;
37973;SDS011;23796;51.458;7.000;2023-08-01T12:48:25;5.07;;;2.28;;
37973;SDS011;23796;51.458;7.000;2023-08-01T12:50:50;5.35;;;2.20;;
37973;SDS011;23796;51.458;7.000;2023-08-01T12:53:16;4.65;;;2.30;;
37973;SDS011;23796;51.458;7.000;2023-08-01T12:55:45;4.93;;;2.72;;
37973;SDS011;23796;51.458;7.000;2023-08-01T12:58:14;5.80;;;2.33;;
37973;SDS011;23796;51.458;7.000;2023-08-01T13:00:41;5.10;;;2.03;;
37973;SDS011;23796;51.458;7.000;2023-08-01T13:03:10;4.38;;;1.60;;
37973;SDS011;23796;51.458;7.000;2023-08-01T13:05:37;5.20;;;1.80;;
37973;SDS011;23796;51.458;7.000;2023-08-01T13:08:03;4.20;;;1.58;;
37973;SDS011;23796;51.458;7.000;2023-08-01T13:10:33;3.60;;;1.50;;
37973;SDS011;23796;51.458;7.000;2023-08-01T13:13:00;4.25;;;1.75;;
37973;SDS011;23796;51.458;7.000;2023-08-01T13:15:28;4.85;;;1.65;;
37973;SDS011;23796;51.458;7.000;2023-08-01T13:17:55;4.72;;;1.95;;
37973;SDS011;23796;51.458;7.000;2023-08-01T13:20:23;6.00;;;1.60;;
37973;SDS011;23796;51.458;7.000;2023-08-01T13:22:49;3.90;;;1.50;;
37973;SDS011;23796;51.458;7.000;2023-08-01T13:25:16;3.67;;;1.35;;
37973;SDS011;23796;51.458;7.000;2023-08-01T13:27:44;6.70;;;1.58;;
37973;SDS011;23796;51.458;7.000;2023-08-01T13:30:12;4.18;;;1.70;;
37973;SDS011;23796;51.458;7.000;2023-08-01T13:32:39;4.30;;;1.50;;
37973;SDS011;23796;51.458;7.000;2023-08-01T13:35:07;6.40;;;1.75;;
37973;SDS011;23796;51.458;7.000;2023-08-01T13:37:38;4.10;;;1.70;;
37973;SDS011;23796;51.458;7.000;2023-08-01T13:40:04;6.88;;;1.92;;
37973;SDS011;23796;51.458;7.000;2023-08-01T13:42:30;4.53;;;1.88;;
37973;SDS011;23796;51.458;7.000;2023-08-01T13:44:56;4.82;;;1.83;;
37973;SDS011;23796;51.458;7.000;2023-08-01T13:47:22;4.38;;;1.55;;
37973;SDS011;23796;51.458;7.000;2023-08-01T13:49:50;4.20;;;1.70;;
37973;SDS011;23796;51.458;7.000;2023-08-01T13:52:16;4.85;;;1.80;;
37973;SDS011;23796;51.458;7.000;2023-08-01T13:54:41;4.63;;;1.52;;
37973;SDS011;23796;51.458;7.000;2023-08-01T13:57:07;5.95;;;1.85;;
37973;SDS011;23796;51.458;7.000;2023-08-01T13:59:33;5.07;;;1.90;;
37973;SDS011;23796;51.458;7.000;2023-08-01T14:01:58;4.18;;;1.80;;
37973;SDS011;23796;51.458;7.000;2023-08-01T14:04:26;5.18;;;1.45;;
37973;SDS011;23796;51.458;7.000;2023-08-01T14:06:51;5.10;;;1.52;;
37973;SDS011;23796;51.458;7.000;2023-08-01T14:09:17;4.43;;;1.38;;
37973;SDS011;23796;51.458;7.000;2023-08-01T14:11:43;5.43;;;1.75;;
37973;SDS011;23796;51.458;7.000;2023-08-01T14:14:08;4.50;;;1.58;;
37973;SDS011;23796;51.458;7.000;2023-08-01T14:16:34;4.25;;;1.52;;
37973;SDS011;23796;51.458;7.000;2023-08-01T14:19:00;4.82;;;1.55;;
37973;SDS011;23796;51.458;7.000;2023-08-01T14:21:26;5.57;;;1.85;;
37973;SDS011;23796;51.458;7.000;2023-08-01T14:23:51;6.13;;;2.05;;
37973;SDS011;23796;51.458;7.000;2023-08-01T14:26:17;5.90;;;1.60;;
37973;SDS011;23796;51.458;7.000;2023-08-01T14:28:45;5.75;;;2.25;;
37973;SDS011;23796;51.458;7.000;2023-08-01T14:31:13;4.50;;;1.77;;
37973;SDS011;23796;51.458;7.000;2023-08-01T14:33:39;7.90;;;1.80;;
37973;SDS011;23796;51.458;7.000;2023-08-01T14:36:10;4.47;;;1.58;;
37973;SDS011;23796;51.458;7.000;2023-08-01T14:38:37;5.10;;;1.90;;
37973;SDS011;23796;51.458;7.000;2023-08-01T14:41:04;5.72;;;1.70;;
37973;SDS011;23796;51.458;7.000;2023-08-01T14:43:29;4.95;;;1.52;;
37973;SDS011;23796;51.458;7.000;2023-08-01T14:45:55;6.30;;;2.35;;
37973;SDS011;23796;51.458;7.000;2023-08-01T14:48:20;4.55;;;1.23;;
37973;SDS011;23796;51.458;7.000;2023-08-01T14:50:46;5.80;;;1.58;;
37973;SDS011;23796;51.458;7.000;2023-08-01T14:53:14;4.35;;;1.52;;
37973;SDS011;23796;51.458;7.000;2023-08-01T14:55:40;5.10;;;1.60;;